sensor_id;sensor_type;location;lat;lon;timestamp;P1;durP1;ratioP1;P2;durP2;ratioP2
34639;SDS011;22600;48.186;11.526;2022-08-07T00:01:21;1.10;;;1.00;;
34639;SDS011;22600;48.186;11.526;2022-08-07T00:03:47;1.27;;;1.17;;
34639;SDS011;22600;48.186;11.526;2022-08-07T00:06:13;1.13;;;1.02;;
34639;SDS011;22600;48.186;11.526;2022-08-07T00:08:39;0.93;;;0.90;;
34639;SDS011;22600;48.186;11.526;2022-08-07T00:11:05;1.00;;;0.90;;
34639;SDS011;22600;48.186;11.526;2022-08-07T00:13:31;1.27;;;1.10;;
34639;SDS011;22600;48.186;11.526;2022-08-07T00:15:57;1.13;;;1.02;;
34639;SDS011;22600;48.186;11.526;2022-08-07T00:18:24;1.10;;;1.00;;
34639;SDS011;22600;48.186;11.526;2022-08-07T00:20:53;1.13;;;1.00;;
34639;SDS011;22600;48.186;11.526;2022-08-07T00:23:19;1.20;;;1.10;;
34639;SDS011;22600;48.186;11.526;2022-08-07T00:25:45;1.30;;;1.20;;
34639;SDS011;22600;48.186;11.526;2022-08-07T00:28:11;1.30;;;1.20;;
34639;SDS011;22600;48.186;11.526;2022-08-07T00:30:37;1.20;;;1.10;;
34639;SDS011;22600;48.186;11.526;2022-08-07T00:33:02;1.30;;;1.20;;
34639;SDS011;22600;48.186;11.526;2022-08-07T00:35:28;1.30;;;1.20;;
34639;SDS011;22600;48.186;11.526;2022-08-07T00:37:54;1.40;;;1.20;;
34639;SDS011;22600;48.186;11.526;2022-08-07T00:40:19;0.90;;;0.90;;
34639;SDS011;22600;48.186;11.526;2022-08-07T00:42:46;1.20;;;1.10;;
34639;SDS011;22600;48.186;11.526;2022-08-07T00:45:12;1.10;;;1.00;;
34639;SDS011;22600;48.186;11.526;2022-08-07T00:47:37;1.20;;;1.10;;
34639;SDS011;22600;48.186;11.526;2022-08-07T00:50:04;1.13;;;1.02;;
34639;SDS011;22600;48.186;11.526;2022-08-07T00:52:30;1.10;;;1.00;;
34639;SDS011;22600;48.186;11.526;2022-08-07T00:54:55;1.20;;;1.10;;
34639;SDS011;22600;48.186;11.526;2022-08-07T00:57:22;1.27;;;1.17;;
34639;SDS011;22600;48.186;11.526;2022-08-07T00:59:48;1.10;;;1.00;;
34639;SDS011;22600;48.186;11.526;2022-08-07T01:02:14;1.10;;;1.00;;
34639;SDS011;22600;48.186;11.526;2022-08-07T01:04:40;1.25;;;1.15;;
34639;SDS011;22600;48.186;11.526;2022-08-07T01:07:05;1.20;;;1.10;;
34639;SDS011;22600;48.186;11.526;2022-08-07T01:09:31;1.30;;;1.20;;
34639;SDS011;22600;48.186;11.526;2022-08-07T01:11:58;1.10;;;1.00;;
34639;SDS011;22600;48.186;11.526;2022-08-07T01:14:24;1.10;;;1.00;;
34639;SDS011;22600;48.186;11.526;2022-08-07T01:16:51;1.38;;;1.27;;
34639;SDS011;22600;48.186;11.526;2022-08-07T01:19:17;1.30;;;1.20;;
34639;SDS011;22600;48.186;11.526;2022-08-07T01:21:46;1.30;;;1.20;;
34639;SDS011;22600;48.186;11.526;2022-08-07T01:24:13;1.10;;;1.00;;
34639;SDS011;22600;48.186;11.526;2022-08-07T01:26:40;1.15;;;1.05;;
34639;SDS011;22600;48.186;11.526;2022-08-07T01:29:06;1.20;;;1.00;;
34639;SDS011;22600;48.186;11.526;2022-08-07T01:31:35;1.20;;;1.10;;
34639;SDS011;22600;48.186;11.526;2022-08-07T01:34:01;1.13;;;1.02;;
34639;SDS011;22600;48.186;11.526;2022-08-07T01:36:29;1.10;;;1.00;;
34639;SDS011;22600;48.186;11.526;2022-08-07T01:38:56;1.00;;;0.90;;
34639;SDS011;22600;48.186;11.526;2022-08-07T01:41:21;1.20;;;1.10;;
34639;SDS011;22600;48.186;11.526;2022-08-07T01:43:48;1.05;;;1.00;;
34639;SDS011;22600;48.186;11.526;2022-08-07T01:46:15;1.25;;;1.15;;
34639;SDS011;22600;48.186;11.526;2022-08-07T01:48:42;1.10;;;1.00;;
34639;SDS011;22600;48.186;11.526;2022-08-07T01:51:11;1.13;;;1.02;;
34639;SDS011;22600;48.186;11.526;2022-08-07T01:53:41;1.13;;;1.02;;
34639;SDS011;22600;48.186;11.526;2022-08-07T01:56:13;1.10;;;1.00;;
34639;SDS011;22600;48.186;11.526;2022-08-07T01:58:48;1.30;;;1.20;;
34639;SDS011;22600;48.186;11.526;2022-08-07T02:01:35;1.10;;;1.00;;
34639;SDS011;22600;48.186;11.526;2022-08-07T02:04:10;1.20;;;1.10;;
34639;SDS011;22600;48.186;11.526;2022-08-07T02:06:41;1.20;;;1.10;;
34639;SDS011;22600;48.186;11.526;2022-08-07T02:09:08;1.00;;;0.90;;
34639;SDS011;22600;48.186;11.526;2022-08-07T02:11:38;1.23;;;1.13;;
34639;SDS011;22600;48.186;11.526;2022-08-07T02:14:07;1.20;;;1.10;;
34639;SDS011;22600;48.186;11.526;2022-08-07T02:16:35;1.10;;;1.00;;
34639;SDS011;22600;48.186;11.526;2022-08-07T02:19:03;1.13;;;1.02;;
34639;SDS011;22600;48.186;11.526;2022-08-07T02:21:32;1.10;;;1.00;;
34639;SDS011;22600;48.186;11.526;2022-08-07T02:23:59;1.20;;;1.10;;
34639;SDS011;22600;48.186;11.526;2022-08-07T02:26:25;0.88;;;0.88;;
34639;SDS011;22600;48.186;11.526;2022-08-07T02:28:52;1.00;;;0.98;;
34639;SDS011;22600;48.186;11.526;2022-08-07T02:31:19;1.20;;;1.10;;
34639;SDS011;22600;48.186;11.526;2022-08-07T02:33:48;1.10;;;1.00;;
34639;SDS011;22600;48.186;11.526;2022-08-07T02:36:15;1.08;;;0.98;;
34639;SDS011;22600;48.186;11.526;2022-08-07T02:38:41;1.15;;;1.05;;
34639;SDS011;22600;48.186;11.526;2022-08-07T02:41:08;1.10;;;1.00;;
34639;SDS011;22600;48.186;11.526;2022-08-07T02:43:37;1.20;;;1.08;;
34639;SDS011;22600;48.186;11.526;2022-08-07T02:46:03;0.98;;;0.90;;
34639;SDS011;22600;48.186;11.526;2022-08-07T02:48:30;0.90;;;0.90;;
34639;SDS011;22600;48.186;11.526;2022-08-07T02:50:56;0.90;;;0.90;;
34639;SDS011;22600;48.186;11.526;2022-08-07T02:53:33;1.05;;;0.95;;
34639;SDS011;22600;48.186;11.526;2022-08-07T02:56:02;1.08;;;0.98;;
34639;SDS011;22600;48.186;11.526;2022-08-07T02:58:30;1.10;;;0.95;;
34639;SDS011;22600;48.186;11.526;2022-08-07T03:00:58;1.20;;;1.10;;
34639;SDS011;22600;48.186;11.526;2022-08-07T03:03:26;1.17;;;1.08;;
34639;SDS011;22600;48.186;11.526;2022-08-07T03:05:53;1.10;;;1.00;;
34639;SDS011;22600;48.186;11.526;2022-08-07T03:08:21;1.00;;;0.95;;
34639;SDS011;22600;48.186;11.526;2022-08-07T03:10:47;1.10;;;1.00;;
34639;SDS011;22600;48.186;11.526;2022-08-07T03:13:15;1.10;;;1.00;;
34639;SDS011;22600;48.186;11.526;2022-08-07T03:15:41;1.20;;;1.10;;
34639;SDS011;22600;48.186;11.526;2022-08-07T03:18:07;1.10;;;1.00;;
34639;SDS011;22600;48.186;11.526;2022-08-07T03:20:34;1.20;;;1.10;;
34639;SDS011;22600;48.186;11.526;2022-08-07T03:23:00;1.08;;;0.98;;
34639;SDS011;22600;48.186;11.526;2022-08-07T03:25:26;1.10;;;1.00;;
34639;SDS011;22600;48.186;11.526;2022-08-07T03:27:55;1.08;;;0.98;;
34639;SDS011;22600;48.186;11.526;2022-08-07T03:30:23;1.15;;;1.05;;
34639;SDS011;22600;48.186;11.526;2022-08-07T03:32:49;0.93;;;0.90;;
34639;SDS011;22600;48.186;11.526;2022-08-07T03:35:22;1.20;;;1.10;;
34639;SDS011;22600;48.186;11.526;2022-08-07T03:37:51;1.10;;;1.00;;
34639;SDS011;22600;48.186;11.526;2022-08-07T03:40:22;1.10;;;1.00;;
34639;SDS011;22600;48.186;11.526;2022-08-07T03:42:49;1.00;;;0.90;;
34639;SDS011;22600;48.186;11.526;2022-08-07T03:45:15;1.00;;;0.90;;
34639;SDS011;22600;48.186;11.526;2022-08-07T03:47:42;0.98;;;0.90;;
34639;SDS011;22600;48.186;11.526;2022-08-07T03:50:08;1.10;;;1.00;;
34639;SDS011;22600;48.186;11.526;2022-08-07T03:52:33;1.02;;;0.93;;
34639;SDS011;22600;48.186;11.526;2022-08-07T03:55:01;1.10;;;1.00;;
34639;SDS011;22600;48.186;11.526;2022-08-07T03:57:28;1.10;;;1.00;;
34639;SDS011;22600;48.186;11.526;2022-08-07T03:59:55;0.90;;;0.88;;
34639;SDS011;22600;48.186;11.526;2022-08-07T04:02:22;1.10;;;1.00;;
34639;SDS011;22600;48.186;11.526;2022-08-07T04:04:48;1.00;;;0.90;;
34639;SDS011;22600;48.186;11.526;2022-08-07T04:07:15;0.90;;;0.90;;
34639;SDS011;22600;48.186;11.526;2022-08-07T04:09:41;1.17;;;1.00;;
34639;SDS011;22600;48.186;11.526;2022-08-07T04:12:09;0.80;;;0.80;;
34639;SDS011;22600;48.186;11.526;2022-08-07T04:14:35;1.30;;;1.10;;
34639;SDS011;22600;48.186;11.526;2022-08-07T04:17:01;0.93;;;0.90;;
34639;SDS011;22600;48.186;11.526;2022-08-07T04:19:27;1.20;;;1.10;;
34639;SDS011;22600;48.186;11.526;2022-08-07T04:21:52;1.08;;;0.98;;
34639;SDS011;22600;48.186;11.526;2022-08-07T04:24:19;0.93;;;0.90;;
34639;SDS011;22600;48.186;11.526;2022-08-07T04:26:46;1.10;;;1.00;;
34639;SDS011;22600;48.186;11.526;2022-08-07T04:29:11;0.90;;;0.90;;
34639;SDS011;22600;48.186;11.526;2022-08-07T04:31:37;1.20;;;1.10;;
34639;SDS011;22600;48.186;11.526;2022-08-07T04:34:05;0.88;;;0.88;;
34639;SDS011;22600;48.186;11.526;2022-08-07T04:36:31;1.13;;;1.02;;
34639;SDS011;22600;48.186;11.526;2022-08-07T04:38:58;0.85;;;0.80;;
34639;SDS011;22600;48.186;11.526;2022-08-07T04:41:24;0.80;;;0.80;;
34639;SDS011;22600;48.186;11.526;2022-08-07T04:43:50;1.10;;;1.00;;
34639;SDS011;22600;48.186;11.526;2022-08-07T04:57:44;1.20;;;1.02;;
34639;SDS011;22600;48.186;11.526;2022-08-07T05:03:19;1.10;;;1.00;;
34639;SDS011;22600;48.186;11.526;2022-08-07T05:05:59;1.00;;;0.90;;
34639;SDS011;22600;48.186;11.526;2022-08-07T05:11:39;1.02;;;0.93;;
34639;SDS011;22600;48.186;11.526;2022-08-07T05:14:11;1.08;;;0.98;;
34639;SDS011;22600;48.186;11.526;2022-08-07T05:16:42;0.80;;;0.80;;
34639;SDS011;22600;48.186;11.526;2022-08-07T05:19:14;0.95;;;0.90;;
34639;SDS011;22600;48.186;11.526;2022-08-07T05:21:46;1.00;;;0.90;;
34639;SDS011;22600;48.186;11.526;2022-08-07T05:24:17;1.20;;;1.00;;
34639;SDS011;22600;48.186;11.526;2022-08-07T05:26:45;0.85;;;0.85;;
34639;SDS011;22600;48.186;11.526;2022-08-07T05:29:15;0.80;;;0.80;;
34639;SDS011;22600;48.186;11.526;2022-08-07T05:31:42;0.85;;;0.80;;
34639;SDS011;22600;48.186;11.526;2022-08-07T05:34:12;0.80;;;0.80;;
34639;SDS011;22600;48.186;11.526;2022-08-07T05:36:40;1.00;;;0.90;;
34639;SDS011;22600;48.186;11.526;2022-08-07T05:39:08;0.90;;;0.90;;
34639;SDS011;22600;48.186;11.526;2022-08-07T05:41:35;1.00;;;0.90;;
34639;SDS011;22600;48.186;11.526;2022-08-07T05:44:02;1.08;;;0.98;;
34639;SDS011;22600;48.186;11.526;2022-08-07T05:46:29;1.00;;;0.90;;
34639;SDS011;22600;48.186;11.526;2022-08-07T05:48:55;0.65;;;0.65;;
34639;SDS011;22600;48.186;11.526;2022-08-07T05:51:21;0.90;;;0.80;;
34639;SDS011;22600;48.186;11.526;2022-08-07T05:53:48;1.05;;;0.95;;
34639;SDS011;22600;48.186;11.526;2022-08-07T05:56:14;0.80;;;0.80;;
34639;SDS011;22600;48.186;11.526;2022-08-07T05:58:43;1.10;;;1.00;;
34639;SDS011;22600;48.186;11.526;2022-08-07T06:01:11;1.00;;;0.90;;
34639;SDS011;22600;48.186;11.526;2022-08-07T06:03:38;0.70;;;0.70;;
34639;SDS011;22600;48.186;11.526;2022-08-07T06:06:09;0.73;;;0.73;;
34639;SDS011;22600;48.186;11.526;2022-08-07T06:08:36;0.73;;;0.73;;
34639;SDS011;22600;48.186;11.526;2022-08-07T06:11:05;0.90;;;0.90;;
34639;SDS011;22600;48.186;11.526;2022-08-07T06:13:31;0.93;;;0.82;;
34639;SDS011;22600;48.186;11.526;2022-08-07T06:15:57;1.00;;;0.90;;
34639;SDS011;22600;48.186;11.526;2022-08-07T06:18:25;1.00;;;0.90;;
34639;SDS011;22600;48.186;11.526;2022-08-07T06:20:51;0.90;;;0.90;;
34639;SDS011;22600;48.186;11.526;2022-08-07T06:23:17;1.10;;;0.85;;
34639;SDS011;22600;48.186;11.526;2022-08-07T06:25:43;0.90;;;0.90;;
34639;SDS011;22600;48.186;11.526;2022-08-07T06:28:09;0.90;;;0.80;;
34639;SDS011;22600;48.186;11.526;2022-08-07T06:30:35;0.80;;;0.80;;
34639;SDS011;22600;48.186;11.526;2022-08-07T06:33:03;1.00;;;0.90;;
34639;SDS011;22600;48.186;11.526;2022-08-07T06:35:29;0.80;;;0.80;;
34639;SDS011;22600;48.186;11.526;2022-08-07T06:37:56;1.00;;;0.90;;
34639;SDS011;22600;48.186;11.526;2022-08-07T06:40:22;1.08;;;0.98;;
34639;SDS011;22600;48.186;11.526;2022-08-07T06:42:48;0.80;;;0.80;;
34639;SDS011;22600;48.186;11.526;2022-08-07T06:45:17;1.15;;;0.90;;
34639;SDS011;22600;48.186;11.526;2022-08-07T06:47:45;0.80;;;0.80;;
34639;SDS011;22600;48.186;11.526;2022-08-07T06:50:11;0.98;;;0.90;;
34639;SDS011;22600;48.186;11.526;2022-08-07T06:52:38;1.00;;;0.90;;
34639;SDS011;22600;48.186;11.526;2022-08-07T06:55:08;0.70;;;0.70;;
34639;SDS011;22600;48.186;11.526;2022-08-07T06:57:38;1.00;;;0.90;;
34639;SDS011;22600;48.186;11.526;2022-08-07T07:00:05;1.02;;;0.82;;
34639;SDS011;22600;48.186;11.526;2022-08-07T07:02:32;0.80;;;0.80;;
34639;SDS011;22600;48.186;11.526;2022-08-07T07:04:58;0.73;;;0.73;;
34639;SDS011;22600;48.186;11.526;2022-08-07T07:07:24;1.02;;;0.93;;
34639;SDS011;22600;48.186;11.526;2022-08-07T07:09:50;1.10;;;0.90;;
34639;SDS011;22600;48.186;11.526;2022-08-07T07:15:19;1.10;;;1.00;;
34639;SDS011;22600;48.186;11.526;2022-08-07T07:17:55;0.82;;;0.82;;
34639;SDS011;22600;48.186;11.526;2022-08-07T07:20:24;1.10;;;1.02;;
34639;SDS011;22600;48.186;11.526;2022-08-07T07:22:55;0.80;;;0.80;;
34639;SDS011;22600;48.186;11.526;2022-08-07T07:25:22;0.73;;;0.73;;
34639;SDS011;22600;48.186;11.526;2022-08-07T07:27:58;0.73;;;0.73;;
34639;SDS011;22600;48.186;11.526;2022-08-07T07:30:36;0.80;;;0.80;;
34639;SDS011;22600;48.186;11.526;2022-08-07T07:33:04;0.70;;;0.70;;
34639;SDS011;22600;48.186;11.526;2022-08-07T07:35:32;0.80;;;0.80;;
34639;SDS011;22600;48.186;11.526;2022-08-07T07:37:59;1.10;;;1.00;;
34639;SDS011;22600;48.186;11.526;2022-08-07T07:40:27;1.00;;;0.90;;
34639;SDS011;22600;48.186;11.526;2022-08-07T07:42:54;0.70;;;0.70;;
34639;SDS011;22600;48.186;11.526;2022-08-07T07:45:26;0.77;;;0.77;;
34639;SDS011;22600;48.186;11.526;2022-08-07T07:47:54;0.80;;;0.80;;
34639;SDS011;22600;48.186;11.526;2022-08-07T07:50:21;1.00;;;0.80;;
34639;SDS011;22600;48.186;11.526;2022-08-07T07:52:48;1.02;;;0.93;;
34639;SDS011;22600;48.186;11.526;2022-08-07T07:55:15;0.95;;;0.90;;
34639;SDS011;22600;48.186;11.526;2022-08-07T07:57:42;1.65;;;1.00;;
34639;SDS011;22600;48.186;11.526;2022-08-07T08:00:09;1.95;;;0.98;;
34639;SDS011;22600;48.186;11.526;2022-08-07T08:02:36;1.15;;;0.80;;
34639;SDS011;22600;48.186;11.526;2022-08-07T08:05:04;1.10;;;1.00;;
34639;SDS011;22600;48.186;11.526;2022-08-07T08:07:31;2.35;;;1.00;;
34639;SDS011;22600;48.186;11.526;2022-08-07T08:10:00;1.00;;;0.90;;
34639;SDS011;22600;48.186;11.526;2022-08-07T08:12:28;1.10;;;1.00;;
34639;SDS011;22600;48.186;11.526;2022-08-07T08:14:55;1.10;;;0.90;;
34639;SDS011;22600;48.186;11.526;2022-08-07T08:17:21;1.27;;;0.90;;
34639;SDS011;22600;48.186;11.526;2022-08-07T08:19:48;1.00;;;0.90;;
34639;SDS011;22600;48.186;11.526;2022-08-07T08:22:17;1.23;;;1.00;;
34639;SDS011;22600;48.186;11.526;2022-08-07T08:25:03;1.02;;;0.82;;
34639;SDS011;22600;48.186;11.526;2022-08-07T08:27:49;1.30;;;1.00;;
34639;SDS011;22600;48.186;11.526;2022-08-07T08:30:17;1.33;;;1.13;;
34639;SDS011;22600;48.186;11.526;2022-08-07T08:32:45;1.00;;;0.80;;
34639;SDS011;22600;48.186;11.526;2022-08-07T08:35:15;1.15;;;1.00;;
34639;SDS011;22600;48.186;11.526;2022-08-07T08:37:45;2.47;;;1.10;;
34639;SDS011;22600;48.186;11.526;2022-08-07T08:40:13;1.02;;;0.90;;
34639;SDS011;22600;48.186;11.526;2022-08-07T08:45:48;1.20;;;0.90;;
34639;SDS011;22600;48.186;11.526;2022-08-07T08:53:50;0.95;;;0.80;;
34639;SDS011;22600;48.186;11.526;2022-08-07T08:56:42;1.27;;;1.00;;
34639;SDS011;22600;48.186;11.526;2022-08-07T09:01:52;1.30;;;0.90;;
34639;SDS011;22600;48.186;11.526;2022-08-07T09:04:43;1.05;;;0.85;;
34639;SDS011;22600;48.186;11.526;2022-08-07T09:10:03;1.08;;;0.80;;
34639;SDS011;22600;48.186;11.526;2022-08-07T09:28:52;1.17;;;0.90;;
34639;SDS011;22600;48.186;11.526;2022-08-07T09:31:38;1.13;;;0.95;;
34639;SDS011;22600;48.186;11.526;2022-08-07T09:37:06;1.02;;;0.80;;
34639;SDS011;22600;48.186;11.526;2022-08-07T09:39:45;1.20;;;0.93;;
34639;SDS011;22600;48.186;11.526;2022-08-07T09:47:50;1.63;;;1.00;;
34639;SDS011;22600;48.186;11.526;2022-08-07T09:53:06;1.27;;;0.90;;
34639;SDS011;22600;48.186;11.526;2022-08-07T09:55:45;1.38;;;1.00;;
34639;SDS011;22600;48.186;11.526;2022-08-07T10:07:26;1.55;;;0.98;;
34639;SDS011;22600;48.186;11.526;2022-08-07T10:10:18;0.80;;;0.80;;
34639;SDS011;22600;48.186;11.526;2022-08-07T10:18:18;1.10;;;0.93;;
34639;SDS011;22600;48.186;11.526;2022-08-07T10:24:00;0.82;;;0.80;;
34639;SDS011;22600;48.186;11.526;2022-08-07T10:31:58;1.55;;;1.10;;
34639;SDS011;22600;48.186;11.526;2022-08-07T10:43:33;0.90;;;0.82;;
34639;SDS011;22600;48.186;11.526;2022-08-07T10:46:15;0.98;;;0.70;;
34639;SDS011;22600;48.186;11.526;2022-08-07T10:49:01;1.08;;;0.80;;
34639;SDS011;22600;48.186;11.526;2022-08-07T10:55:06;0.88;;;0.70;;
34639;SDS011;22600;48.186;11.526;2022-08-07T11:00:14;1.00;;;0.90;;
34639;SDS011;22600;48.186;11.526;2022-08-07T11:02:55;0.90;;;0.80;;
34639;SDS011;22600;48.186;11.526;2022-08-07T11:10:54;1.42;;;0.90;;
34639;SDS011;22600;48.186;11.526;2022-08-07T11:13:35;0.80;;;0.80;;
34639;SDS011;22600;48.186;11.526;2022-08-07T11:16:18;0.73;;;0.73;;
34639;SDS011;22600;48.186;11.526;2022-08-07T11:18:50;1.08;;;0.98;;
34639;SDS011;22600;48.186;11.526;2022-08-07T11:21:25;1.30;;;0.80;;
34639;SDS011;22600;48.186;11.526;2022-08-07T11:26:40;1.00;;;0.80;;
34639;SDS011;22600;48.186;11.526;2022-08-07T11:29:37;1.05;;;0.80;;
34639;SDS011;22600;48.186;11.526;2022-08-07T11:32:27;1.08;;;0.90;;
34639;SDS011;22600;48.186;11.526;2022-08-07T11:34:58;1.13;;;0.80;;
34639;SDS011;22600;48.186;11.526;2022-08-07T11:40:24;1.25;;;0.90;;
34639;SDS011;22600;48.186;11.526;2022-08-07T11:43:03;0.95;;;0.85;;
34639;SDS011;22600;48.186;11.526;2022-08-07T11:51:08;1.05;;;0.95;;
34639;SDS011;22600;48.186;11.526;2022-08-07T11:59:05;0.88;;;0.80;;
34639;SDS011;22600;48.186;11.526;2022-08-07T12:02:02;0.82;;;0.70;;
34639;SDS011;22600;48.186;11.526;2022-08-07T12:07:20;1.00;;;0.90;;
34639;SDS011;22600;48.186;11.526;2022-08-07T12:09:52;1.25;;;0.85;;
34639;SDS011;22600;48.186;11.526;2022-08-07T12:15:22;0.93;;;0.90;;
34639;SDS011;22600;48.186;11.526;2022-08-07T12:18:02;1.52;;;0.90;;
34639;SDS011;22600;48.186;11.526;2022-08-07T12:29:06;1.08;;;0.80;;
34639;SDS011;22600;48.186;11.526;2022-08-07T12:34:28;1.20;;;0.90;;
34639;SDS011;22600;48.186;11.526;2022-08-07T12:36:56;1.00;;;0.90;;
34639;SDS011;22600;48.186;11.526;2022-08-07T12:39:24;1.00;;;0.90;;
34639;SDS011;22600;48.186;11.526;2022-08-07T12:41:53;1.05;;;0.80;;
34639;SDS011;22600;48.186;11.526;2022-08-07T12:44:19;1.13;;;0.90;;
34639;SDS011;22600;48.186;11.526;2022-08-07T12:46:52;1.25;;;0.80;;
34639;SDS011;22600;48.186;11.526;2022-08-07T12:49:51;1.00;;;0.88;;
34639;SDS011;22600;48.186;11.526;2022-08-07T12:52:32;1.35;;;1.00;;
34639;SDS011;22600;48.186;11.526;2022-08-07T12:55:20;1.00;;;0.90;;
34639;SDS011;22600;48.186;11.526;2022-08-07T12:57:51;0.90;;;0.70;;
34639;SDS011;22600;48.186;11.526;2022-08-07T13:00:22;1.08;;;0.90;;
34639;SDS011;22600;48.186;11.526;2022-08-07T13:03:04;1.00;;;0.90;;
34639;SDS011;22600;48.186;11.526;2022-08-07T13:08:21;1.30;;;0.90;;
34639;SDS011;22600;48.186;11.526;2022-08-07T13:16:58;1.00;;;0.95;;
34639;SDS011;22600;48.186;11.526;2022-08-07T13:19:42;1.05;;;0.90;;
34639;SDS011;22600;48.186;11.526;2022-08-07T13:22:25;1.10;;;0.90;;
34639;SDS011;22600;48.186;11.526;2022-08-07T13:27:50;1.00;;;0.70;;
34639;SDS011;22600;48.186;11.526;2022-08-07T13:30:20;0.82;;;0.82;;
34639;SDS011;22600;48.186;11.526;2022-08-07T13:32:49;1.27;;;0.80;;
34639;SDS011;22600;48.186;11.526;2022-08-07T13:35:45;0.98;;;0.88;;
34639;SDS011;22600;48.186;11.526;2022-08-07T13:41:11;1.95;;;0.80;;
34639;SDS011;22600;48.186;11.526;2022-08-07T13:43:50;1.13;;;0.98;;
34639;SDS011;22600;48.186;11.526;2022-08-07T13:46:18;1.05;;;0.88;;
34639;SDS011;22600;48.186;11.526;2022-08-07T13:48:48;1.10;;;0.90;;
34639;SDS011;22600;48.186;11.526;2022-08-07T13:51:16;1.07;;;0.83;;
34639;SDS011;22600;48.186;11.526;2022-08-07T13:53:52;0.98;;;0.88;;
34639;SDS011;22600;48.186;11.526;2022-08-07T13:56:29;1.10;;;0.93;;
34639;SDS011;22600;48.186;11.526;2022-08-07T13:58:58;1.10;;;0.80;;
34639;SDS011;22600;48.186;11.526;2022-08-07T14:01:27;1.35;;;0.90;;
34639;SDS011;22600;48.186;11.526;2022-08-07T14:03:55;0.90;;;0.70;;
34639;SDS011;22600;48.186;11.526;2022-08-07T14:06:22;1.00;;;0.90;;
34639;SDS011;22600;48.186;11.526;2022-08-07T14:08:55;1.20;;;0.90;;
34639;SDS011;22600;48.186;11.526;2022-08-07T14:11:22;0.80;;;0.80;;
34639;SDS011;22600;48.186;11.526;2022-08-07T14:13:53;0.75;;;0.75;;
34639;SDS011;22600;48.186;11.526;2022-08-07T14:16:32;1.00;;;0.90;;
34639;SDS011;22600;48.186;11.526;2022-08-07T14:19:00;0.70;;;0.70;;
34639;SDS011;22600;48.186;11.526;2022-08-07T14:21:29;0.93;;;0.70;;
34639;SDS011;22600;48.186;11.526;2022-08-07T14:24:06;0.77;;;0.77;;
34639;SDS011;22600;48.186;11.526;2022-08-07T14:29:07;0.77;;;0.77;;
34639;SDS011;22600;48.186;11.526;2022-08-07T14:31:35;1.17;;;0.90;;
34639;SDS011;22600;48.186;11.526;2022-08-07T14:34:02;0.80;;;0.80;;
34639;SDS011;22600;48.186;11.526;2022-08-07T14:36:29;0.90;;;0.80;;
34639;SDS011;22600;48.186;11.526;2022-08-07T14:38:58;0.77;;;0.77;;
34639;SDS011;22600;48.186;11.526;2022-08-07T14:41:28;0.85;;;0.80;;
34639;SDS011;22600;48.186;11.526;2022-08-07T14:43:56;0.80;;;0.80;;
34639;SDS011;22600;48.186;11.526;2022-08-07T14:46:25;0.93;;;0.80;;
34639;SDS011;22600;48.186;11.526;2022-08-07T14:48:52;0.80;;;0.80;;
34639;SDS011;22600;48.186;11.526;2022-08-07T14:51:21;0.82;;;0.70;;
34639;SDS011;22600;48.186;11.526;2022-08-07T14:53:52;0.98;;;0.80;;
34639;SDS011;22600;48.186;11.526;2022-08-07T14:56:20;1.10;;;0.88;;
34639;SDS011;22600;48.186;11.526;2022-08-07T14:58:50;0.80;;;0.80;;
34639;SDS011;22600;48.186;11.526;2022-08-07T15:01:18;1.30;;;0.83;;
34639;SDS011;22600;48.186;11.526;2022-08-07T15:03:48;0.93;;;0.73;;
34639;SDS011;22600;48.186;11.526;2022-08-07T15:06:14;0.70;;;0.70;;
34639;SDS011;22600;48.186;11.526;2022-08-07T15:08:48;0.73;;;0.73;;
34639;SDS011;22600;48.186;11.526;2022-08-07T15:11:17;0.70;;;0.70;;
34639;SDS011;22600;48.186;11.526;2022-08-07T15:14:02;0.60;;;0.60;;
34639;SDS011;22600;48.186;11.526;2022-08-07T15:16:36;1.17;;;0.77;;
34639;SDS011;22600;48.186;11.526;2022-08-07T15:19:09;0.93;;;0.80;;
34639;SDS011;22600;48.186;11.526;2022-08-07T15:24:08;0.80;;;0.80;;
34639;SDS011;22600;48.186;11.526;2022-08-07T15:26:44;0.93;;;0.80;;
34639;SDS011;22600;48.186;11.526;2022-08-07T15:29:14;1.08;;;0.90;;
34639;SDS011;22600;48.186;11.526;2022-08-07T15:31:42;1.00;;;0.80;;
34639;SDS011;22600;48.186;11.526;2022-08-07T15:34:11;0.70;;;0.70;;
34639;SDS011;22600;48.186;11.526;2022-08-07T15:36:37;0.80;;;0.70;;
34639;SDS011;22600;48.186;11.526;2022-08-07T15:39:04;1.23;;;0.80;;
34639;SDS011;22600;48.186;11.526;2022-08-07T15:41:31;0.80;;;0.70;;
34639;SDS011;22600;48.186;11.526;2022-08-07T15:44:05;1.00;;;0.70;;
34639;SDS011;22600;48.186;11.526;2022-08-07T15:46:34;0.80;;;0.70;;
34639;SDS011;22600;48.186;11.526;2022-08-07T15:49:02;0.80;;;0.80;;
34639;SDS011;22600;48.186;11.526;2022-08-07T15:51:31;0.80;;;0.70;;
34639;SDS011;22600;48.186;11.526;2022-08-07T15:54:00;0.77;;;0.77;;
34639;SDS011;22600;48.186;11.526;2022-08-07T15:56:29;0.80;;;0.77;;
34639;SDS011;22600;48.186;11.526;2022-08-07T15:58:58;1.00;;;0.80;;
34639;SDS011;22600;48.186;11.526;2022-08-07T16:01:37;0.80;;;0.80;;
34639;SDS011;22600;48.186;11.526;2022-08-07T16:04:08;0.70;;;0.70;;
34639;SDS011;22600;48.186;11.526;2022-08-07T16:06:37;0.88;;;0.80;;
34639;SDS011;22600;48.186;11.526;2022-08-07T16:11:43;0.80;;;0.80;;
34639;SDS011;22600;48.186;11.526;2022-08-07T16:25:49;0.75;;;0.75;;
34639;SDS011;22600;48.186;11.526;2022-08-07T16:34:06;0.70;;;0.70;;
34639;SDS011;22600;48.186;11.526;2022-08-07T16:56:31;1.10;;;0.77;;
34639;SDS011;22600;48.186;11.526;2022-08-07T16:59:22;1.00;;;0.77;;
34639;SDS011;22600;48.186;11.526;2022-08-07T17:02:25;0.98;;;0.77;;
34639;SDS011;22600;48.186;11.526;2022-08-07T17:07:46;0.90;;;0.80;;
34639;SDS011;22600;48.186;11.526;2022-08-07T17:15:51;0.75;;;0.75;;
34639;SDS011;22600;48.186;11.526;2022-08-07T17:18:37;0.70;;;0.70;;
34639;SDS011;22600;48.186;11.526;2022-08-07T17:21:13;1.25;;;0.90;;
34639;SDS011;22600;48.186;11.526;2022-08-07T17:23:46;0.80;;;0.80;;
34639;SDS011;22600;48.186;11.526;2022-08-07T17:26:35;0.70;;;0.70;;
34639;SDS011;22600;48.186;11.526;2022-08-07T17:29:15;1.60;;;0.70;;
34639;SDS011;22600;48.186;11.526;2022-08-07T17:34:17;0.80;;;0.73;;
34639;SDS011;22600;48.186;11.526;2022-08-07T17:36:48;0.90;;;0.80;;
34639;SDS011;22600;48.186;11.526;2022-08-07T17:42:09;1.00;;;0.85;;
34639;SDS011;22600;48.186;11.526;2022-08-07T17:44:54;0.75;;;0.75;;
34639;SDS011;22600;48.186;11.526;2022-08-07T17:50:10;0.88;;;0.80;;
34639;SDS011;22600;48.186;11.526;2022-08-07T17:52:42;0.80;;;0.80;;
34639;SDS011;22600;48.186;11.526;2022-08-07T17:55:21;0.80;;;0.70;;
34639;SDS011;22600;48.186;11.526;2022-08-07T17:59:12;0.70;;;0.70;;
34639;SDS011;22600;48.186;11.526;2022-08-07T18:01:18;0.60;;;0.60;;
34639;SDS011;22600;48.186;11.526;2022-08-07T18:06:57;0.93;;;0.70;;
34639;SDS011;22600;48.186;11.526;2022-08-07T18:09:36;0.65;;;0.65;;
34639;SDS011;22600;48.186;11.526;2022-08-07T18:12:06;0.68;;;0.68;;
34639;SDS011;22600;48.186;11.526;2022-08-07T18:14:45;1.33;;;0.70;;
34639;SDS011;22600;48.186;11.526;2022-08-07T18:17:31;0.77;;;0.70;;
34639;SDS011;22600;48.186;11.526;2022-08-07T18:20:11;0.63;;;0.63;;
34639;SDS011;22600;48.186;11.526;2022-08-07T18:22:49;0.88;;;0.85;;
34639;SDS011;22600;48.186;11.526;2022-08-07T18:25:29;0.80;;;0.70;;
34639;SDS011;22600;48.186;11.526;2022-08-07T18:30:37;0.70;;;0.70;;
34639;SDS011;22600;48.186;11.526;2022-08-07T18:44:48;0.98;;;0.80;;
34639;SDS011;22600;48.186;11.526;2022-08-07T18:55:53;0.80;;;0.70;;